sensor_id;sensor_type;location;lat;lon;timestamp;pressure;altitude;pressure_sealevel;temperature;humidity
74103;BME280;62853;46.166;3.640;2022-09-12T00:00:51;101616.00;;;13.95;100.00
74103;BME280;62853;46.166;3.640;2022-09-12T00:03:26;101614.47;;;13.91;100.00
74103;BME280;62853;46.166;3.640;2022-09-12T00:05:51;101605.75;;;13.89;100.00
74103;BME280;62853;46.166;3.640;2022-09-12T00:08:17;101600.38;;;13.91;100.00
74103;BME280;62853;46.166;3.640;2022-09-12T00:10:43;101599.69;;;13.87;100.00
74103;BME280;62853;46.166;3.640;2022-09-12T00:13:09;101605.66;;;13.91;100.00
74103;BME280;62853;46.166;3.640;2022-09-12T00:15:39;101598.84;;;13.87;100.00
74103;BME280;62853;46.166;3.640;2022-09-12T00:18:06;101602.41;;;13.86;100.00
74103;BME280;62853;46.166;3.640;2022-09-12T00:20:32;101596.63;;;13.79;100.00
74103;BME280;62853;46.166;3.640;2022-09-12T00:22:57;101597.50;;;13.80;100.00
74103;BME280;62853;46.166;3.640;2022-09-12T00:25:23;101597.50;;;13.80;100.00
74103;BME280;62853;46.166;3.640;2022-09-12T00:27:48;101596.63;;;13.79;100.00
74103;BME280;62853;46.166;3.640;2022-09-12T00:30:13;101594.22;;;13.58;100.00
74103;BME280;62853;46.166;3.640;2022-09-12T00:32:39;101588.00;;;13.75;100.00
74103;BME280;62853;46.166;3.640;2022-09-12T00:35:05;101589.63;;;13.62;100.00
74103;BME280;62853;46.166;3.640;2022-09-12T00:37:30;101591.19;;;13.66;100.00
74103;BME280;62853;46.166;3.640;2022-09-12T00:39:56;101581.19;;;13.71;100.00
74103;BME280;62853;46.166;3.640;2022-09-12T00:42:21;101585.69;;;13.69;100.00
74103;BME280;62853;46.166;3.640;2022-09-12T00:44:50;101578.09;;;13.63;100.00
74103;BME280;62853;46.166;3.640;2022-09-12T00:47:23;101586.53;;;13.54;100.00
74103;BME280;62853;46.166;3.640;2022-09-12T00:50:12;101584.78;;;13.54;100.00
74103;BME280;62853;46.166;3.640;2022-09-12T00:52:46;101577.66;;;13.55;100.00
74103;BME280;62853;46.166;3.640;2022-09-12T00:55:16;101576.03;;;13.52;100.00
74103;BME280;62853;46.166;3.640;2022-09-12T00:58:11;101583.66;;;13.58;100.00
74103;BME280;62853;46.166;3.640;2022-09-12T01:00:38;101572.13;;;13.60;100.00
74103;BME280;62853;46.166;3.640;2022-09-12T01:03:10;101576.75;;;13.56;100.00
74103;BME280;62853;46.166;3.640;2022-09-12T01:05:40;101556.84;;;13.49;100.00
74103;BME280;62853;46.166;3.640;2022-09-12T01:08:08;101561.03;;;13.53;100.00
74103;BME280;62853;46.166;3.640;2022-09-12T01:10:35;101559.31;;;13.52;100.00
74103;BME280;62853;46.166;3.640;2022-09-12T01:13:06;101562.03;;;13.50;100.00
74103;BME280;62853;46.166;3.640;2022-09-12T01:15:32;101557.34;;;13.39;100.00
74103;BME280;62853;46.166;3.640;2022-09-12T01:29:01;101554.13;;;13.34;100.00
74103;BME280;62853;46.166;3.640;2022-09-12T01:34:25;101548.56;;;13.39;100.00
74103;BME280;62853;46.166;3.640;2022-09-12T01:37:01;101549.03;;;13.30;100.00
74103;BME280;62853;46.166;3.640;2022-09-12T01:39:56;101534.53;;;13.21;100.00
74103;BME280;62853;46.166;3.640;2022-09-12T01:42:35;101535.22;;;13.25;100.00
74103;BME280;62853;46.166;3.640;2022-09-12T01:45:25;101542.66;;;13.34;100.00
74103;BME280;62853;46.166;3.640;2022-09-12T01:47:56;101539.16;;;13.33;100.00
74103;BME280;62853;46.166;3.640;2022-09-12T01:50:32;101539.16;;;13.33;100.00
74103;BME280;62853;46.166;3.640;2022-09-12T01:53:07;101533.25;;;13.28;100.00
74103;BME280;62853;46.166;3.640;2022-09-12T01:55:43;101532.41;;;13.28;100.00
74103;BME280;62853;46.166;3.640;2022-09-12T01:58:20;101535.22;;;13.25;100.00
74103;BME280;62853;46.166;3.640;2022-09-12T02:00:51;101529.06;;;13.24;100.00
74103;BME280;62853;46.166;3.640;2022-09-12T02:03:23;101527.00;;;13.13;100.00
74103;BME280;62853;46.166;3.640;2022-09-12T02:05:59;101527.00;;;13.13;100.00
74103;BME280;62853;46.166;3.640;2022-09-12T02:08:33;101522.50;;;13.15;100.00
74103;BME280;62853;46.166;3.640;2022-09-12T02:11:08;101525.09;;;12.99;100.00
74103;BME280;62853;46.166;3.640;2022-09-12T02:13:39;101519.34;;;13.09;100.00
74103;BME280;62853;46.166;3.640;2022-09-12T02:16:09;101509.94;;;13.03;100.00
74103;BME280;62853;46.166;3.640;2022-09-12T02:18:44;101521.19;;;13.07;100.00
74103;BME280;62853;46.166;3.640;2022-09-12T02:21:11;101512.41;;;13.06;100.00
74103;BME280;62853;46.166;3.640;2022-09-12T02:23:40;101514.38;;;13.02;100.00
74103;BME280;62853;46.166;3.640;2022-09-12T02:26:21;101510.88;;;13.02;100.00
74103;BME280;62853;46.166;3.640;2022-09-12T02:28:48;101507.78;;;12.94;100.00
74103;BME280;62853;46.166;3.640;2022-09-12T02:31:22;101517.78;;;13.05;100.00
74103;BME280;62853;46.166;3.640;2022-09-12T02:36:51;101518.53;;;13.07;100.00
74103;BME280;62853;46.166;3.640;2022-09-12T02:39:19;101521.63;;;12.99;100.00
74103;BME280;62853;46.166;3.640;2022-09-12T02:41:53;101511.88;;;12.99;100.00
74103;BME280;62853;46.166;3.640;2022-09-12T02:44:20;101517.34;;;12.96;100.00
74103;BME280;62853;46.166;3.640;2022-09-12T02:46:50;101499.78;;;12.95;100.00
74103;BME280;62853;46.166;3.640;2022-09-12T02:49:16;101504.63;;;12.87;100.00
74103;BME280;62853;46.166;3.640;2022-09-12T02:51:42;101508.03;;;12.89;100.00
74103;BME280;62853;46.166;3.640;2022-09-12T02:54:09;101506.16;;;12.91;100.00
74103;BME280;62853;46.166;3.640;2022-09-12T02:56:40;101507.97;;;12.91;100.00
74103;BME280;62853;46.166;3.640;2022-09-12T02:59:08;101500.19;;;12.88;100.00
74103;BME280;62853;46.166;3.640;2022-09-12T03:06:58;101489.59;;;12.88;100.00
74103;BME280;62853;46.166;3.640;2022-09-12T03:09:41;101494.97;;;12.86;100.00
74103;BME280;62853;46.166;3.640;2022-09-12T03:23:27;101483.63;;;12.84;100.00
74103;BME280;62853;46.166;3.640;2022-09-12T03:28:30;101491.41;;;12.87;100.00
74103;BME280;62853;46.166;3.640;2022-09-12T03:30:57;101482.78;;;12.83;100.00
74103;BME280;62853;46.166;3.640;2022-09-12T03:33:24;101491.66;;;12.82;100.00
74103;BME280;62853;46.166;3.640;2022-09-12T03:35:51;101497.00;;;12.81;100.00
74103;BME280;62853;46.166;3.640;2022-09-12T03:38:17;101484.13;;;12.75;100.00
74103;BME280;62853;46.166;3.640;2022-09-12T03:40:43;101483.13;;;12.77;100.00
74103;BME280;62853;46.166;3.640;2022-09-12T03:43:09;101486.00;;;12.73;100.00
74103;BME280;62853;46.166;3.640;2022-09-12T03:45:35;101483.50;;;12.70;100.00
74103;BME280;62853;46.166;3.640;2022-09-12T03:48:02;101478.41;;;12.67;100.00
74103;BME280;62853;46.166;3.640;2022-09-12T03:50:28;101475.16;;;12.61;100.00
74103;BME280;62853;46.166;3.640;2022-09-12T03:52:53;101475.78;;;12.67;100.00
74103;BME280;62853;46.166;3.640;2022-09-12T03:55:19;101475.50;;;12.71;100.00
74103;BME280;62853;46.166;3.640;2022-09-12T03:57:44;101483.50;;;12.70;100.00
74103;BME280;62853;46.166;3.640;2022-09-12T04:00:11;101473.00;;;12.68;100.00
74103;BME280;62853;46.166;3.640;2022-09-12T04:02:36;101460.59;;;12.70;100.00
74103;BME280;62853;46.166;3.640;2022-09-12T04:05:02;101468.59;;;12.69;100.00
74103;BME280;62853;46.166;3.640;2022-09-12T04:07:28;101459.31;;;12.61;100.00
74103;BME280;62853;46.166;3.640;2022-09-12T04:09:54;101453.00;;;12.64;100.00
74103;BME280;62853;46.166;3.640;2022-09-12T04:12:20;101459.78;;;12.52;100.00
74103;BME280;62853;46.166;3.640;2022-09-12T04:14:46;101453.03;;;12.46;100.00
74103;BME280;62853;46.166;3.640;2022-09-12T04:17:12;101453.13;;;12.45;100.00
74103;BME280;62853;46.166;3.640;2022-09-12T04:19:38;101458.84;;;12.53;100.00
74103;BME280;62853;46.166;3.640;2022-09-12T04:22:04;101464.06;;;12.55;100.00
74103;BME280;62853;46.166;3.640;2022-09-12T04:24:29;101459.47;;;12.58;100.00
74103;BME280;62853;46.166;3.640;2022-09-12T04:26:55;101450.13;;;12.51;100.00
74103;BME280;62853;46.166;3.640;2022-09-12T04:29:20;101447.75;;;12.46;100.00
74103;BME280;62853;46.166;3.640;2022-09-12T04:31:46;101448.38;;;12.34;100.00
74103;BME280;62853;46.166;3.640;2022-09-12T04:34:11;101443.31;;;12.47;100.00
74103;BME280;62853;46.166;3.640;2022-09-12T04:36:37;101444.16;;;12.47;100.00
74103;BME280;62853;46.166;3.640;2022-09-12T04:39:03;101449.13;;;12.54;100.00
74103;BME280;62853;46.166;3.640;2022-09-12T04:41:34;101448.03;;;12.58;100.00
74103;BME280;62853;46.166;3.640;2022-09-12T04:44:05;101441.06;;;12.57;100.00
74103;BME280;62853;46.166;3.640;2022-09-12T04:46:34;101439.09;;;12.60;100.00
74103;BME280;62853;46.166;3.640;2022-09-12T04:49:00;101432.44;;;12.53;100.00
74103;BME280;62853;46.166;3.640;2022-09-12T04:51:29;101440.59;;;12.49;100.00
74103;BME280;62853;46.166;3.640;2022-09-12T04:53:57;101438.72;;;12.51;100.00
74103;BME280;62853;46.166;3.640;2022-09-12T04:56:24;101430.78;;;12.51;100.00
74103;BME280;62853;46.166;3.640;2022-09-12T04:58:50;101436.94;;;12.51;100.00
74103;BME280;62853;46.166;3.640;2022-09-12T05:01:20;101430.56;;;12.55;100.00
74103;BME280;62853;46.166;3.640;2022-09-12T05:03:47;101431.47;;;12.54;100.00
74103;BME280;62853;46.166;3.640;2022-09-12T05:06:34;101439.16;;;12.59;100.00
74103;BME280;62853;46.166;3.640;2022-09-12T05:09:00;101434.88;;;12.56;100.00
74103;BME280;62853;46.166;3.640;2022-09-12T05:11:29;101434.19;;;12.53;100.00
74103;BME280;62853;46.166;3.640;2022-09-12T05:13:55;101441.22;;;12.54;100.00
74103;BME280;62853;46.166;3.640;2022-09-12T05:16:21;101440.19;;;12.56;100.00
74103;BME280;62853;46.166;3.640;2022-09-12T05:18:47;101448.09;;;12.56;100.00
74103;BME280;62853;46.166;3.640;2022-09-12T05:21:16;101445.56;;;12.55;100.00
74103;BME280;62853;46.166;3.640;2022-09-12T05:23:42;101445.34;;;12.42;100.00
74103;BME280;62853;46.166;3.640;2022-09-12T05:26:11;101441.88;;;12.41;100.00
74103;BME280;62853;46.166;3.640;2022-09-12T05:28:38;101448.00;;;12.42;100.00
74103;BME280;62853;46.166;3.640;2022-09-12T05:31:13;101445.13;;;12.46;100.00
74103;BME280;62853;46.166;3.640;2022-09-12T05:33:42;101446.56;;;12.52;100.00
74103;BME280;62853;46.166;3.640;2022-09-12T05:36:22;101442.22;;;12.51;100.00
74103;BME280;62853;46.166;3.640;2022-09-12T05:38:48;101441.88;;;12.57;100.00
74103;BME280;62853;46.166;3.640;2022-09-12T05:41:16;101440.09;;;12.58;100.00
74103;BME280;62853;46.166;3.640;2022-09-12T05:43:43;101438.41;;;12.57;100.00
74103;BME280;62853;46.166;3.640;2022-09-12T05:46:17;101442.72;;;12.58;100.00
74103;BME280;62853;46.166;3.640;2022-09-12T05:48:44;101445.06;;;12.64;100.00
74103;BME280;62853;46.166;3.640;2022-09-12T05:51:18;101450.88;;;12.71;100.00
74103;BME280;62853;46.166;3.640;2022-09-12T05:53:49;101456.75;;;12.76;100.00
74103;BME280;62853;46.166;3.640;2022-09-12T05:56:18;101451.16;;;12.82;100.00
74103;BME280;62853;46.166;3.640;2022-09-12T05:58:46;101449.44;;;12.81;100.00
74103;BME280;62853;46.166;3.640;2022-09-12T06:01:17;101458.06;;;13.00;100.00
74103;BME280;62853;46.166;3.640;2022-09-12T06:03:51;101460.88;;;12.97;100.00
74103;BME280;62853;46.166;3.640;2022-09-12T06:06:19;101465.81;;;13.03;100.00
74103;BME280;62853;46.166;3.640;2022-09-12T06:08:47;101475.22;;;13.09;100.00
74103;BME280;62853;46.166;3.640;2022-09-12T06:11:15;101474.38;;;13.09;100.00
74103;BME280;62853;46.166;3.640;2022-09-12T06:13:41;101470.00;;;13.08;100.00
74103;BME280;62853;46.166;3.640;2022-09-12T06:16:08;101472.34;;;13.14;100.00
74103;BME280;62853;46.166;3.640;2022-09-12T06:18:35;101471.81;;;13.07;100.00
74103;BME280;62853;46.166;3.640;2022-09-12T06:21:08;101476.81;;;13.12;100.00
74103;BME280;62853;46.166;3.640;2022-09-12T06:23:35;101470.69;;;13.11;100.00
74103;BME280;62853;46.166;3.640;2022-09-12T06:26:02;101472.94;;;13.19;100.00
74103;BME280;62853;46.166;3.640;2022-09-12T06:28:29;101475.56;;;13.19;100.00
74103;BME280;62853;46.166;3.640;2022-09-12T06:31:01;101466.97;;;13.15;100.00
74103;BME280;62853;46.166;3.640;2022-09-12T06:33:29;101473.25;;;13.13;100.00
74103;BME280;62853;46.166;3.640;2022-09-12T06:36:03;101470.25;;;13.03;100.00
74103;BME280;62853;46.166;3.640;2022-09-12T06:38:29;101458.50;;;13.09;100.00
74103;BME280;62853;46.166;3.640;2022-09-12T06:40:55;101456.63;;;13.11;100.00
74103;BME280;62853;46.166;3.640;2022-09-12T06:43:21;101469.91;;;13.25;100.00
74103;BME280;62853;46.166;3.640;2022-09-12T06:45:50;101460.28;;;13.24;100.00
74103;BME280;62853;46.166;3.640;2022-09-12T06:48:15;101459.63;;;13.36;100.00
74103;BME280;62853;46.166;3.640;2022-09-12T06:50:41;101456.56;;;13.44;100.00
74103;BME280;62853;46.166;3.640;2022-09-12T06:53:06;101453.13;;;13.58;100.00
74103;BME280;62853;46.166;3.640;2022-09-12T06:55:32;101454.44;;;13.65;100.00
74103;BME280;62853;46.166;3.640;2022-09-12T06:57:58;101447.50;;;13.79;100.00
74103;BME280;62853;46.166;3.640;2022-09-12T07:00:23;101449.50;;;13.89;100.00
74103;BME280;62853;46.166;3.640;2022-09-12T07:02:53;101449.16;;;13.95;100.00
74103;BME280;62853;46.166;3.640;2022-09-12T07:05:19;101455.97;;;14.00;100.00
74103;BME280;62853;46.166;3.640;2022-09-12T07:07:44;101448.88;;;14.00;100.00
74103;BME280;62853;46.166;3.640;2022-09-12T07:10:10;101441.53;;;14.05;100.00
74103;BME280;62853;46.166;3.640;2022-09-12T07:12:36;101450.03;;;14.10;100.00
74103;BME280;62853;46.166;3.640;2022-09-12T07:15:01;101450.88;;;14.11;100.00
74103;BME280;62853;46.166;3.640;2022-09-12T07:17:27;101458.75;;;14.12;100.00
74103;BME280;62853;46.166;3.640;2022-09-12T07:19:52;101456.28;;;14.09;100.00
74103;BME280;62853;46.166;3.640;2022-09-12T07:22:17;101458.25;;;14.06;100.00
74103;BME280;62853;46.166;3.640;2022-09-12T07:24:43;101454.09;;;14.16;100.00
74103;BME280;62853;46.166;3.640;2022-09-12T07:27:09;101451.59;;;14.29;100.00
74103;BME280;62853;46.166;3.640;2022-09-12T07:29:35;101451.97;;;14.37;100.00
74103;BME280;62853;46.166;3.640;2022-09-12T07:32:00;101446.50;;;14.40;100.00
74103;BME280;62853;46.166;3.640;2022-09-12T07:34:27;101452.53;;;14.57;100.00
74103;BME280;62853;46.166;3.640;2022-09-12T07:36:52;101446.66;;;14.80;100.00
74103;BME280;62853;46.166;3.640;2022-09-12T07:39:18;101442.00;;;14.98;100.00
74103;BME280;62853;46.166;3.640;2022-09-12T07:41:44;101443.59;;;15.15;100.00
74103;BME280;62853;46.166;3.640;2022-09-12T07:44:09;101432.94;;;15.30;100.00
74103;BME280;62853;46.166;3.640;2022-09-12T07:46:35;101444.78;;;15.51;100.00
74103;BME280;62853;46.166;3.640;2022-09-12T07:49:01;101444.94;;;15.62;100.00
74103;BME280;62853;46.166;3.640;2022-09-12T07:51:28;101448.28;;;15.79;100.00
74103;BME280;62853;46.166;3.640;2022-09-12T07:53:54;101448.19;;;15.93;100.00
74103;BME280;62853;46.166;3.640;2022-09-12T07:56:20;101447.06;;;15.97;100.00
74103;BME280;62853;46.166;3.640;2022-09-12T07:58:47;101454.94;;;15.99;100.00
74103;BME280;62853;46.166;3.640;2022-09-12T08:01:20;101450.66;;;15.96;100.00
74103;BME280;62853;46.166;3.640;2022-09-12T08:03:48;101446.84;;;16.01;100.00
74103;BME280;62853;46.166;3.640;2022-09-12T08:06:17;101452.91;;;16.03;100.00
74103;BME280;62853;46.166;3.640;2022-09-12T08:08:48;101449.50;;;16.01;100.00
74103;BME280;62853;46.166;3.640;2022-09-12T08:11:16;101452.28;;;15.99;100.00
74103;BME280;62853;46.166;3.640;2022-09-12T08:13:42;101444.94;;;16.03;100.00
74103;BME280;62853;46.166;3.640;2022-09-12T08:16:16;101446.22;;;16.10;100.00
74103;BME280;62853;46.166;3.640;2022-09-12T08:18:42;101441.13;;;16.20;100.00
74103;BME280;62853;46.166;3.640;2022-09-12T08:21:20;101453.44;;;16.21;100.00
74103;BME280;62853;46.166;3.640;2022-09-12T08:23:46;101453.56;;;16.19;100.00
74103;BME280;62853;46.166;3.640;2022-09-12T08:26:12;101453.03;;;16.27;100.00
74103;BME280;62853;46.166;3.640;2022-09-12T08:28:38;101462.59;;;16.29;100.00
74103;BME280;62853;46.166;3.640;2022-09-12T08:31:07;101462.72;;;16.28;100.00
74103;BME280;62853;46.166;3.640;2022-09-12T08:33:33;101459.84;;;16.31;100.00
74103;BME280;62853;46.166;3.640;2022-09-12T08:36:12;101461.44;;;16.33;100.00
74103;BME280;62853;46.166;3.640;2022-09-12T08:38:40;101456.84;;;16.35;100.00
74103;BME280;62853;46.166;3.640;2022-09-12T08:49:38;101461.44;;;16.46;100.00
74103;BME280;62853;46.166;3.640;2022-09-12T08:52:11;101456.75;;;16.50;100.00
74103;BME280;62853;46.166;3.640;2022-09-12T08:54:39;101464.31;;;16.56;100.00
74103;BME280;62853;46.166;3.640;2022-09-12T08:57:08;101462.16;;;16.61;100.00
74103;BME280;62853;46.166;3.640;2022-09-12T08:59:39;101454.94;;;16.63;100.00
74103;BME280;62853;46.166;3.640;2022-09-12T09:02:45;101448.31;;;16.69;100.00
74103;BME280;62853;46.166;3.640;2022-09-12T09:05:31;101445.00;;;16.78;100.00
74103;BME280;62853;46.166;3.640;2022-09-12T09:08:15;101453.44;;;16.85;100.00
74103;BME280;62853;46.166;3.640;2022-09-12T09:10:52;101441.72;;;16.87;100.00
74103;BME280;62853;46.166;3.640;2022-09-12T09:16:22;101438.81;;;16.78;100.00
74103;BME280;62853;46.166;3.640;2022-09-12T09:18:51;101437.56;;;16.83;100.00
74103;BME280;62853;46.166;3.640;2022-09-12T09:21:26;101440.00;;;16.86;100.00
74103;BME280;62853;46.166;3.640;2022-09-12T09:24:00;101441.81;;;16.86;100.00
74103;BME280;62853;46.166;3.640;2022-09-12T09:26:33;101433.72;;;16.87;100.00
74103;BME280;62853;46.166;3.640;2022-09-12T09:29:18;101437.13;;;16.89;100.00
74103;BME280;62853;46.166;3.640;2022-09-12T09:31:47;101433.91;;;16.97;100.00
74103;BME280;62853;46.166;3.640;2022-09-12T09:34:19;101432.00;;;16.99;100.00
74103;BME280;62853;46.166;3.640;2022-09-12T09:39:38;101439.59;;;17.17;100.00
74103;BME280;62853;46.166;3.640;2022-09-12T09:44:35;101430.44;;;17.21;100.00
74103;BME280;62853;46.166;3.640;2022-09-12T09:47:01;101414.00;;;17.27;100.00
74103;BME280;62853;46.166;3.640;2022-09-12T09:49:29;101414.25;;;17.24;100.00
74103;BME280;62853;46.166;3.640;2022-09-12T09:51:57;101413.75;;;17.30;100.00
74103;BME280;62853;46.166;3.640;2022-09-12T09:54:28;101408.19;;;17.22;100.00
74103;BME280;62853;46.166;3.640;2022-09-12T09:56:55;101400.44;;;17.30;100.00
74103;BME280;62853;46.166;3.640;2022-09-12T10:01:55;101403.34;;;17.51;100.00
74103;BME280;62853;46.166;3.640;2022-09-12T10:04:26;101398.50;;;17.56;99.50
74103;BME280;62853;46.166;3.640;2022-09-12T10:06:58;101396.06;;;17.53;100.00
74103;BME280;62853;46.166;3.640;2022-09-12T10:09:26;101393.56;;;17.63;100.00
74103;BME280;62853;46.166;3.640;2022-09-12T10:11:53;101379.91;;;17.67;95.83
74103;BME280;62853;46.166;3.640;2022-09-12T10:16:56;101374.53;;;17.92;96.99
74103;BME280;62853;46.166;3.640;2022-09-12T10:19:33;101374.75;;;17.89;100.00
74103;BME280;62853;46.166;3.640;2022-09-12T10:21:59;101369.44;;;17.89;99.88
74103;BME280;62853;46.166;3.640;2022-09-12T10:24:29;101363.88;;;17.92;97.45
74103;BME280;62853;46.166;3.640;2022-09-12T10:26:58;101366.06;;;17.98;91.60
74103;BME280;62853;46.166;3.640;2022-09-12T10:29:32;101359.78;;;18.10;97.08
74103;BME280;62853;46.166;3.640;2022-09-12T10:32:02;101355.75;;;18.16;99.70
74103;BME280;62853;46.166;3.640;2022-09-12T10:34:41;101353.34;;;18.35;98.31
74103;BME280;62853;46.166;3.640;2022-09-12T10:37:09;101347.84;;;18.59;92.38
74103;BME280;62853;46.166;3.640;2022-09-12T10:39:40;101345.47;;;19.00;95.61
74103;BME280;62853;46.166;3.640;2022-09-12T10:42:05;101344.81;;;19.19;87.73
74103;BME280;62853;46.166;3.640;2022-09-12T10:44:33;101338.69;;;19.49;87.20
74103;BME280;62853;46.166;3.640;2022-09-12T10:47:18;101343.47;;;19.67;88.06
74103;BME280;62853;46.166;3.640;2022-09-12T10:49:44;101335.91;;;19.72;86.44
74103;BME280;62853;46.166;3.640;2022-09-12T10:52:23;101328.38;;;19.77;92.31
74103;BME280;62853;46.166;3.640;2022-09-12T10:54:50;101331.34;;;19.84;84.17
74103;BME280;62853;46.166;3.640;2022-09-12T10:57:22;101333.97;;;20.05;81.50
74103;BME280;62853;46.166;3.640;2022-09-12T11:02:57;101320.59;;;20.45;76.18
74103;BME280;62853;46.166;3.640;2022-09-12T11:11:03;101320.91;;;20.52;82.78
74103;BME280;62853;46.166;3.640;2022-09-12T11:13:55;101316.41;;;20.53;84.84
74103;BME280;62853;46.166;3.640;2022-09-12T11:24:37;101303.34;;;20.69;77.50
74103;BME280;62853;46.166;3.640;2022-09-12T11:27:16;101300.84;;;20.87;72.86
74103;BME280;62853;46.166;3.640;2022-09-12T11:29:49;101293.22;;;20.83;74.82
74103;BME280;62853;46.166;3.640;2022-09-12T11:35:23;101290.72;;;21.10;76.87
74103;BME280;62853;46.166;3.640;2022-09-12T11:42:56;101283.53;;;20.91;76.44
74103;BME280;62853;46.166;3.640;2022-09-12T11:45:29;101282.81;;;20.99;76.41
74103;BME280;62853;46.166;3.640;2022-09-12T11:48:00;101284.94;;;20.95;82.36
74103;BME280;62853;46.166;3.640;2022-09-12T11:50:30;101283.94;;;20.96;86.31
74103;BME280;62853;46.166;3.640;2022-09-12T11:56:11;101285.63;;;21.27;77.60
74103;BME280;62853;46.166;3.640;2022-09-12T11:58:39;101286.31;;;21.09;84.23
74103;BME280;62853;46.166;3.640;2022-09-12T12:01:12;101282.66;;;21.10;81.36
74103;BME280;62853;46.166;3.640;2022-09-12T12:03:42;101284.34;;;21.11;82.34
74103;BME280;62853;46.166;3.640;2022-09-12T12:06:16;101285.22;;;21.22;76.09
74103;BME280;62853;46.166;3.640;2022-09-12T12:08:46;101283.03;;;21.35;68.62
74103;BME280;62853;46.166;3.640;2022-09-12T12:11:15;101275.00;;;21.45;80.47
74103;BME280;62853;46.166;3.640;2022-09-12T12:13:57;101278.25;;;21.48;82.49
74103;BME280;62853;46.166;3.640;2022-09-12T12:16:37;101274.16;;;21.54;81.21
74103;BME280;62853;46.166;3.640;2022-09-12T12:19:26;101274.28;;;21.62;70.90
74103;BME280;62853;46.166;3.640;2022-09-12T12:21:54;101266.66;;;21.67;70.29
74103;BME280;62853;46.166;3.640;2022-09-12T12:24:31;101270.03;;;21.69;77.89
74103;BME280;62853;46.166;3.640;2022-09-12T12:26:59;101272.00;;;21.67;82.79
74103;BME280;62853;46.166;3.640;2022-09-12T12:34:31;101268.69;;;21.83;64.96
74103;BME280;62853;46.166;3.640;2022-09-12T12:36:57;101260.66;;;21.83;75.02
74103;BME280;62853;46.166;3.640;2022-09-12T12:41:58;101261.19;;;21.87;74.79
74103;BME280;62853;46.166;3.640;2022-09-12T12:44:46;101253.28;;;21.85;81.89
74103;BME280;62853;46.166;3.640;2022-09-12T12:47:25;101264.78;;;21.78;81.85
74103;BME280;62853;46.166;3.640;2022-09-12T12:49:57;101250.69;;;21.76;81.02
74103;BME280;62853;46.166;3.640;2022-09-12T12:52:24;101245.75;;;21.71;69.86
74103;BME280;62853;46.166;3.640;2022-09-12T12:54:57;101230.06;;;21.76;67.12
74103;BME280;62853;46.166;3.640;2022-09-12T12:57:44;101234.41;;;21.77;67.63
74103;BME280;62853;46.166;3.640;2022-09-12T13:05:22;101227.53;;;21.74;79.44
74103;BME280;62853;46.166;3.640;2022-09-12T13:08:28;101224.16;;;21.72;80.85
74103;BME280;62853;46.166;3.640;2022-09-12T13:11:55;101223.75;;;21.67;78.08
74103;BME280;62853;46.166;3.640;2022-09-12T13:17:03;101227.28;;;21.68;76.03
74103;BME280;62853;46.166;3.640;2022-09-12T13:19:32;101217.41;;;21.59;75.20
74103;BME280;62853;46.166;3.640;2022-09-12T13:22:01;101204.63;;;21.52;80.99
74103;BME280;62853;46.166;3.640;2022-09-12T13:24:26;101194.44;;;21.56;75.61
74103;BME280;62853;46.166;3.640;2022-09-12T13:26:52;101195.75;;;21.52;76.24
74103;BME280;62853;46.166;3.640;2022-09-12T13:29:20;101193.63;;;21.46;81.06
74103;BME280;62853;46.166;3.640;2022-09-12T13:31:48;101189.84;;;21.39;81.96
74103;BME280;62853;46.166;3.640;2022-09-12T13:34:23;101197.56;;;21.42;79.40
74103;BME280;62853;46.166;3.640;2022-09-12T13:40:21;101198.03;;;21.37;67.36
74103;BME280;62853;46.166;3.640;2022-09-12T13:43:06;101197.06;;;21.28;79.43
74103;BME280;62853;46.166;3.640;2022-09-12T13:45:35;101194.97;;;21.12;80.81
74103;BME280;62853;46.166;3.640;2022-09-12T13:48:03;101192.59;;;21.09;80.66
74103;BME280;62853;46.166;3.640;2022-09-12T13:50:38;101196.94;;;21.20;76.34
74103;BME280;62853;46.166;3.640;2022-09-12T13:53:08;101191.84;;;21.27;70.19
74103;BME280;62853;46.166;3.640;2022-09-12T13:55:38;101188.44;;;21.34;78.12
74103;BME280;62853;46.166;3.640;2022-09-12T13:58:14;101182.41;;;21.23;71.75
74103;BME280;62853;46.166;3.640;2022-09-12T14:00:39;101193.25;;;21.21;80.71
74103;BME280;62853;46.166;3.640;2022-09-12T14:03:28;101186.78;;;21.24;76.18
74103;BME280;62853;46.166;3.640;2022-09-12T14:06:12;101184.25;;;21.22;76.51
74103;BME280;62853;46.166;3.640;2022-09-12T14:08:40;101182.13;;;21.26;69.43
74103;BME280;62853;46.166;3.640;2022-09-12T14:11:10;101176.47;;;21.29;78.81
74103;BME280;62853;46.166;3.640;2022-09-12T14:13:36;101178.06;;;21.22;79.35
74103;BME280;62853;46.166;3.640;2022-09-12T14:16:03;101166.47;;;21.21;74.12
74103;BME280;62853;46.166;3.640;2022-09-12T14:18:33;101162.66;;;21.24;75.91
74103;BME280;62853;46.166;3.640;2022-09-12T14:23:51;101150.59;;;21.10;81.78
74103;BME280;62853;46.166;3.640;2022-09-12T14:26:17;101147.91;;;21.10;72.65
74103;BME280;62853;46.166;3.640;2022-09-12T14:28:44;101151.97;;;21.14;74.57
74103;BME280;62853;46.166;3.640;2022-09-12T14:33:48;101140.03;;;21.08;81.18
74103;BME280;62853;46.166;3.640;2022-09-12T14:36:16;101143.09;;;21.13;69.44
74103;BME280;62853;46.166;3.640;2022-09-12T14:38:45;101144.38;;;21.09;74.95
74103;BME280;62853;46.166;3.640;2022-09-12T14:41:13;101135.91;;;21.14;68.51
74103;BME280;62853;46.166;3.640;2022-09-12T14:43:46;101138.31;;;21.07;66.79
74103;BME280;62853;46.166;3.640;2022-09-12T14:46:34;101123.97;;;21.08;72.53
74103;BME280;62853;46.166;3.640;2022-09-12T14:49:07;101117.19;;;21.04;77.91